Time;durP1;ratioP1;P1;durP2;ratioP2;P2;SDS_P1;SDS_P2;PMS_P1;PMS_P2;Temp;Humidity;BMP_temperature;BMP_pressure;BME280_temperature;BME280_humidity;BME280_pressure;Samples;Min_cycle;Max_cycle;Signal;HPM_P1;HPM_P2
2023/08/28 00:00:58;;;;;;;5.73;5.23;;;15.20;99.90;;;;;;4983724;28;20211;-83
2023/08/28 00:03:24;;;;;;;7.53;5.60;;;15.20;99.90;;;;;;5002603;28;20190;-83
2023/08/28 00:05:49;;;;;;;9.33;6.10;;;15.20;99.90;;;;;;5002440;28;20932;-84
2023/08/28 00:08:15;;;;;;;5.90;5.50;;;15.10;1.00;;;;;;5002691;28;20201;-83
2023/08/28 00:10:40;;;;;;;6.40;5.90;;;15.10;1.00;;;;;;5003269;28;20216;-84
2023/08/28 00:13:06;;;;;;;9.20;5.77;;;15.10;1.00;;;;;;4997675;28;20230;-84
2023/08/28 00:15:31;;;;;;;9.20;6.60;;;15.00;1.00;;;;;;4985553;28;20232;-84
2023/08/28 00:17:57;;;;;;;6.77;6.07;;;15.00;1.00;;;;;;5002798;28;20194;-83
2023/08/28 00:20:23;;;;;;;6.80;6.20;;;14.90;1.00;;;;;;4996833;28;20226;-82
2023/08/28 00:22:49;;;;;;;6.60;6.00;;;14.90;1.00;;;;;;4978527;28;20218;-81
2023/08/28 00:25:14;;;;;;;10.20;5.77;;;14.80;1.00;;;;;;4995083;28;20440;-82
2023/08/28 00:27:40;;;;;;;7.23;5.97;;;14.80;1.00;;;;;;4998116;28;20441;-82
2023/08/28 00:30:07;;;;;;;10.10;6.27;;;14.80;1.00;;;;;;4994213;28;20360;-82
2023/08/28 00:32:34;;;;;;;9.27;6.60;;;14.70;1.00;;;;;;4991299;28;20201;-82
2023/08/28 00:34:59;;;;;;;7.77;6.87;;;14.70;1.00;;;;;;4994475;28;21294;-82
2023/08/28 00:37:25;;;;;;;6.70;6.10;;;14.70;1.00;;;;;;4994747;28;20434;-82
2023/08/28 00:39:50;;;;;;;6.47;5.87;;;14.70;10.50;;;;;;4994891;28;20202;-82
2023/08/28 00:42:16;;;;;;;6.30;5.70;;;14.60;16.40;;;;;;4994536;28;20277;-82
2023/08/28 00:44:41;;;;;;;5.40;5.00;;;14.60;14.10;;;;;;4991159;28;20212;-81
2023/08/28 00:47:10;;;;;;;6.13;5.53;;;14.60;1.70;;;;;;4991933;28;20185;-83
2023/08/28 00:49:36;;;;;;;7.20;5.93;;;14.60;1.00;;;;;;4993433;28;20582;-82
2023/08/28 00:52:02;;;;;;;6.20;5.70;;;14.60;19.50;;;;;;4976574;28;20491;-82
2023/08/28 00:54:28;;;;;;;5.83;5.23;;;14.60;44.60;;;;;;4993518;28;20539;-82
2023/08/28 00:56:54;;;;;;;6.20;5.60;;;14.60;41.40;;;;;;4997946;28;20467;-83
2023/08/28 00:59:20;;;;;;;5.50;5.00;;;14.60;47.50;;;;;;4975317;28;20185;-80
2023/08/28 01:01:46;;;;;;;7.30;5.60;;;14.60;61.80;;;;;;4994149;28;20467;-82
2023/08/28 01:04:14;;;;;;;6.60;6.07;;;14.50;82.40;;;;;;4973286;28;20195;-82
2023/08/28 01:06:51;;;;;;;5.83;5.23;;;14.50;77.10;;;;;;4996623;28;20188;-83
2023/08/28 01:09:45;;;;;;;5.60;5.10;;;14.50;77.90;;;;;;5002362;28;20440;-83
2023/08/28 01:12:32;;;;;;;6.80;6.20;;;14.50;69.60;;;;;;4997247;28;20452;-84
2023/08/28 01:15:19;;;;;;;5.97;5.40;;;14.50;94.20;;;;;;4998753;28;20427;-82
2023/08/28 01:17:50;;;;;;;5.90;5.40;;;14.40;99.90;;;;;;4998234;28;20440;-83
2023/08/28 01:20:16;;;;;;;7.20;5.30;;;14.40;99.90;;;;;;5002152;28;20942;-84
2023/08/28 01:23:18;;;;;;;7.03;6.10;;;14.40;99.90;;;;;;4998852;28;20845;-83
2023/08/28 01:25:44;;;;;;;6.00;5.50;;;14.30;99.90;;;;;;5001846;28;20605;-83
2023/08/28 01:28:10;;;;;;;5.73;5.23;;;14.30;99.90;;;;;;5000506;28;20441;-83
2023/08/28 01:30:35;;;;;;;6.60;5.73;;;14.30;99.90;;;;;;5001197;28;20475;-83
2023/08/28 01:33:01;;;;;;;5.83;5.07;;;14.30;99.90;;;;;;5000837;28;20211;-84
2023/08/28 01:35:30;;;;;;;6.30;5.70;;;14.30;99.90;;;;;;5000941;28;20218;-83
2023/08/28 01:38:19;;;;;;;6.90;6.00;;;14.30;99.90;;;;;;4981106;28;20190;-83
2023/08/28 01:41:19;;;;;;;7.90;5.80;;;14.30;99.90;;;;;;5001765;28;20965;-83
2023/08/28 01:43:48;;;;;;;9.20;5.93;;;14.30;99.90;;;;;;4956737;28;20847;-83
2023/08/28 01:46:15;;;;;;;7.00;6.40;;;14.20;99.90;;;;;;5001880;28;20431;-82
2023/08/28 01:48:47;;;;;;;7.70;6.13;;;14.20;99.90;;;;;;4982305;28;20507;-83
2023/08/28 01:51:12;;;;;;;6.93;6.30;;;14.20;99.90;;;;;;5001449;28;20482;-84
2023/08/28 01:53:38;;;;;;;8.00;6.17;;;14.20;99.90;;;;;;4979954;28;20437;-81
2023/08/28 01:56:06;;;;;;;7.50;6.00;;;14.10;99.90;;;;;;4990732;28;20199;-81
2023/08/28 01:58:33;;;;;;;6.13;5.63;;;14.10;99.90;;;;;;4993203;28;20259;-82
2023/08/28 02:00:59;;;;;;;7.53;5.30;;;14.10;99.90;;;;;;4991505;28;20460;-82
2023/08/28 02:03:25;;;;;;;6.40;5.90;;;14.10;99.90;;;;;;4977266;28;20917;-83
2023/08/28 02:05:50;;;;;;;6.57;5.90;;;14.10;99.90;;;;;;4994330;28;20188;-82
2023/08/28 02:08:15;;;;;;;6.73;5.80;;;14.10;99.90;;;;;;4998656;28;20194;-83
2023/08/28 02:10:41;;;;;;;7.00;6.30;;;14.10;99.90;;;;;;4997887;28;20213;-83
2023/08/28 02:13:07;;;;;;;6.57;5.80;;;14.00;99.90;;;;;;5002631;28;20303;-83
2023/08/28 02:15:32;;;;;;;7.13;5.30;;;14.00;99.90;;;;;;5000732;28;20202;-83
2023/08/28 02:17:58;;;;;;;6.87;5.57;;;14.00;99.90;;;;;;5002302;28;20700;-83
2023/08/28 02:20:23;;;;;;;5.63;5.13;;;14.00;99.90;;;;;;5000866;28;20262;-83
2023/08/28 02:22:49;;;;;;;6.53;5.73;;;14.00;99.90;;;;;;4997365;28;20701;-82
2023/08/28 02:25:18;;;;;;;6.50;5.90;;;14.00;99.90;;;;;;4989523;28;20200;-82
2023/08/28 02:27:43;;;;;;;7.70;5.93;;;14.00;99.90;;;;;;4992481;28;20176;-82
2023/08/28 02:30:09;;;;;;;10.83;5.70;;;14.00;99.90;;;;;;4974315;28;21059;-82
2023/08/28 02:32:35;;;;;;;6.83;5.60;;;14.00;99.90;;;;;;4988278;28;20260;-81
2023/08/28 02:35:00;;;;;;;6.27;5.67;;;14.00;99.90;;;;;;4992767;28;20442;-83
2023/08/28 02:37:26;;;;;;;7.37;6.00;;;14.00;99.90;;;;;;4992207;28;20198;-81
2023/08/28 02:39:51;;;;;;;6.40;5.80;;;14.00;99.90;;;;;;4974879;28;20191;-81
2023/08/28 02:42:16;;;;;;;6.47;5.83;;;13.90;99.90;;;;;;4999152;28;20231;-84
2023/08/28 02:44:42;;;;;;;7.10;6.20;;;13.90;99.90;;;;;;4997947;28;20387;-83
2023/08/28 02:47:08;;;;;;;6.50;5.90;;;13.90;99.90;;;;;;5000507;28;20242;-83
2023/08/28 02:49:33;;;;;;;6.20;5.60;;;13.90;99.90;;;;;;4980248;28;20441;-83
2023/08/28 02:51:59;;;;;;;6.53;5.93;;;13.90;99.90;;;;;;4999771;28;20208;-83
2023/08/28 02:54:24;;;;;;;6.00;5.40;;;13.90;99.90;;;;;;4999129;28;20722;-83
2023/08/28 02:56:50;;;;;;;6.57;5.97;;;13.90;99.90;;;;;;5001347;28;20203;-82
2023/08/28 02:59:15;;;;;;;18.93;6.90;;;13.90;99.90;;;;;;5000626;28;20202;-84
2023/08/28 03:01:41;;;;;;;6.60;6.00;;;13.90;99.90;;;;;;4994796;28;20203;-83
2023/08/28 03:04:06;;;;;;;7.50;6.67;;;13.90;99.90;;;;;;4981427;28;20208;-83
2023/08/28 03:06:39;;;;;;;10.23;6.93;;;13.90;99.90;;;;;;4997158;28;20195;-83
2023/08/28 03:09:07;;;;;;;6.47;5.50;;;13.80;99.90;;;;;;4982093;28;20190;-85
2023/08/28 03:11:33;;;;;;;9.27;5.93;;;13.80;99.90;;;;;;4999757;28;20489;-83
2023/08/28 03:13:59;;;;;;;8.10;7.27;;;13.80;99.90;;;;;;5000561;28;20444;-82
2023/08/28 03:16:24;;;;;;;7.73;6.57;;;13.80;99.90;;;;;;4977803;28;20463;-83
2023/08/28 03:18:50;;;;;;;10.93;6.20;;;13.80;99.90;;;;;;4978030;28;20186;-84
2023/08/28 03:21:15;;;;;;;7.03;6.33;;;13.80;99.90;;;;;;4998648;28;20254;-82
2023/08/28 03:23:41;;;;;;;6.73;5.57;;;13.70;99.90;;;;;;4999261;28;20187;-83
2023/08/28 03:26:07;;;;;;;7.10;6.40;;;13.70;99.90;;;;;;5000992;28;20749;-83
2023/08/28 03:28:32;;;;;;;6.70;6.00;;;13.70;99.90;;;;;;4973988;28;20223;-81
2023/08/28 03:30:59;;;;;;;6.17;5.43;;;13.70;99.90;;;;;;4992753;28;20470;-81
2023/08/28 03:33:25;;;;;;;5.87;5.43;;;13.70;99.90;;;;;;4993221;28;20254;-81
2023/08/28 03:35:51;;;;;;;6.97;6.33;;;13.70;99.90;;;;;;4969161;28;20435;-82
2023/08/28 03:38:17;;;;;;;6.83;5.67;;;13.70;99.90;;;;;;4984114;28;20184;-82
2023/08/28 03:40:43;;;;;;;7.73;5.87;;;13.70;99.90;;;;;;4990926;28;20191;-81
2023/08/28 03:43:09;;;;;;;6.70;6.10;;;13.70;99.90;;;;;;4991997;28;21115;-81
2023/08/28 03:45:34;;;;;;;9.03;6.50;;;13.70;99.90;;;;;;4991592;28;20552;-82
2023/08/28 03:48:00;;;;;;;9.20;5.53;;;13.70;99.90;;;;;;4989728;28;20194;-81
2023/08/28 03:50:29;;;;;;;7.10;6.50;;;13.60;99.90;;;;;;4991694;28;20207;-82
2023/08/28 03:52:55;;;;;;;6.50;5.90;;;13.70;99.90;;;;;;4974726;28;20219;-82
2023/08/28 03:55:21;;;;;;;8.03;6.00;;;13.70;99.90;;;;;;4990245;28;20444;-81
2023/08/28 03:57:47;;;;;;;5.93;5.43;;;13.70;99.90;;;;;;4993366;28;20451;-82
2023/08/28 04:00:14;;;;;;;11.40;5.83;;;13.70;99.90;;;;;;4989729;28;20440;-82
2023/08/28 04:02:40;;;;;;;7.53;6.30;;;13.70;99.90;;;;;;4974688;28;20208;-81
2023/08/28 04:05:07;;;;;;;6.07;5.50;;;13.60;99.90;;;;;;4976036;28;20438;-81
2023/08/28 04:07:33;;;;;;;7.90;6.03;;;13.60;1.00;;;;;;4978348;28;20439;-81
2023/08/28 04:09:59;;;;;;;12.77;6.63;;;13.60;1.00;;;;;;4989881;28;20534;-82
2023/08/28 04:12:25;;;;;;;7.50;6.70;;;13.60;1.00;;;;;;4975807;28;20447;-82
2023/08/28 04:14:50;;;;;;;10.53;7.03;;;13.60;1.00;;;;;;5000179;28;20556;-83
2023/08/28 04:17:16;;;;;;;7.20;6.10;;;13.60;1.00;;;;;;5000618;28;20228;-82
2023/08/28 04:19:42;;;;;;;7.63;6.83;;;13.60;1.00;;;;;;4977414;28;20868;-82
2023/08/28 04:22:07;;;;;;;7.00;6.40;;;13.50;1.00;;;;;;5001115;28;20216;-83
2023/08/28 04:24:33;;;;;;;10.80;7.40;;;13.50;1.00;;;;;;5002914;28;20815;-82
2023/08/28 04:26:59;;;;;;;6.90;6.00;;;13.50;1.00;;;;;;5001817;28;20193;-83
2023/08/28 04:29:24;;;;;;;7.23;6.10;;;13.50;1.00;;;;;;5002458;28;20199;-84
2023/08/28 04:31:50;;;;;;;7.90;6.77;;;13.50;1.00;;;;;;5001403;28;20298;-83
2023/08/28 04:34:16;;;;;;;7.20;6.40;;;13.40;1.00;;;;;;5002027;28;20187;-83
2023/08/28 04:36:41;;;;;;;7.00;6.40;;;13.40;1.00;;;;;;5002368;28;20239;-83
2023/08/28 04:39:07;;;;;;;11.70;7.00;;;13.40;1.00;;;;;;5000821;28;20438;-82
2023/08/28 04:41:33;;;;;;;7.87;6.97;;;13.40;1.00;;;;;;5001746;28;20298;-81
2023/08/28 04:44:01;;;;;;;7.40;6.33;;;13.40;1.00;;;;;;4997847;28;20200;-82
2023/08/28 04:46:28;;;;;;;7.00;6.40;;;13.40;1.00;;;;;;5000607;28;20212;-82
2023/08/28 04:48:53;;;;;;;7.10;6.23;;;13.40;1.00;;;;;;4999474;28;20447;-83
2023/08/28 04:51:19;;;;;;;7.00;6.40;;;13.40;1.00;;;;;;4996591;28;20480;-82
2023/08/28 04:53:45;;;;;;;8.20;6.30;;;13.40;1.00;;;;;;5000491;28;20203;-81
2023/08/28 04:56:11;;;;;;;6.50;5.90;;;13.50;1.00;;;;;;5003367;28;20514;-82
2023/08/28 04:58:36;;;;;;;6.33;5.73;;;13.50;1.00;;;;;;5001729;28;20251;-81
2023/08/28 05:01:02;;;;;;;7.23;6.43;;;13.50;1.00;;;;;;4993663;28;20187;-82
2023/08/28 05:03:27;;;;;;;7.80;6.87;;;13.60;1.00;;;;;;4993788;28;20271;-81
2023/08/28 05:05:54;;;;;;;9.97;7.47;;;13.60;1.00;;;;;;4991765;28;20187;-81
2023/08/28 05:08:20;;;;;;;7.50;6.20;;;13.70;1.00;;;;;;4994049;28;20188;-83
2023/08/28 05:10:45;;;;;;;8.50;6.33;;;13.70;1.00;;;;;;4976756;28;20470;-82
2023/08/28 05:13:11;;;;;;;9.90;5.70;;;13.80;1.00;;;;;;4989145;28;20990;-83
2023/08/28 05:15:36;;;;;;;7.40;6.60;;;13.90;99.90;;;;;;4991980;28;20321;-81
2023/08/28 05:18:02;;;;;;;8.83;5.90;;;14.00;99.90;;;;;;4992167;28;20199;-82
2023/08/28 05:20:28;;;;;;;6.10;5.50;;;14.00;99.90;;;;;;4996711;28;20301;-81
2023/08/28 05:22:54;;;;;;;9.70;5.57;;;14.10;99.90;;;;;;4997628;28;20208;-81
2023/08/28 05:25:19;;;;;;;6.20;5.60;;;14.20;99.90;;;;;;4979283;28;20518;-80
2023/08/28 05:27:45;;;;;;;7.13;6.40;;;14.30;99.90;;;;;;4992446;28;20217;-83
2023/08/28 05:30:11;;;;;;;7.30;6.00;;;14.30;99.90;;;;;;4995655;28;20215;-82
2023/08/28 05:32:37;;;;;;;7.60;5.33;;;14.40;99.90;;;;;;4979090;28;20213;-82
2023/08/28 05:35:03;;;;;;;6.43;5.80;;;14.50;99.90;;;;;;4992278;28;20446;-83
2023/08/28 05:37:29;;;;;;;5.63;5.10;;;14.70;29.90;;;;;;4994402;28;20654;-82
2023/08/28 05:39:54;;;;;;;5.50;4.33;;;16.50;1.00;;;;;;4994680;28;20441;-82
2023/08/28 05:42:57;;;;;;;3.93;3.63;;;19.90;99.90;;;;;;4995484;28;20333;-84
2023/08/28 05:45:23;;;;;;;3.73;3.37;;;23.20;1.00;;;;;;4987770;28;20194;-82
2023/08/28 05:47:48;;;;;;;4.97;3.67;;;25.70;1.00;;;;;;4992932;28;20427;-83
2023/08/28 05:50:14;;;;;;;4.33;2.80;;;27.40;1.00;;;;;;5000752;28;20237;-83
2023/08/28 05:52:40;;;;;;;2.53;2.30;;;28.90;1.00;;;;;;4997875;28;20282;-83
2023/08/28 05:55:05;;;;;;;6.50;2.77;;;30.30;1.00;;;;;;5001982;28;20495;-83
2023/08/28 05:57:31;;;;;;;2.47;2.27;;;31.10;1.00;;;;;;5002248;28;20205;-84
2023/08/28 05:59:57;;;;;;;3.57;2.07;;;32.20;1.00;;;;;;4999093;28;20196;-86
2023/08/28 06:02:22;;;;;;;4.00;2.53;;;32.90;1.00;;;;;;4995058;28;20211;-84
2023/08/28 06:04:48;;;;;;;2.40;2.20;;;34.50;1.00;;;;;;4997829;28;20200;-86
2023/08/28 06:07:14;;;;;;;3.07;2.13;;;35.70;1.00;;;;;;4996532;28;20192;-86
2023/08/28 06:09:42;;;;;;;2.93;2.00;;;36.10;1.00;;;;;;4980673;28;20580;-85
2023/08/28 06:12:08;;;;;;;2.10;1.90;;;37.20;1.00;;;;;;4979166;28;21579;-86
2023/08/28 06:14:33;;;;;;;3.57;2.70;;;38.30;1.00;;;;;;4997027;28;20442;-86
2023/08/28 06:16:59;;;;;;;5.50;2.80;;;35.40;1.00;;;;;;4999169;28;20757;-84
2023/08/28 06:19:25;;;;;;;2.80;2.40;;;32.50;1.00;;;;;;4981590;28;20191;-85
2023/08/28 06:21:51;;;;;;;3.70;2.53;;;31.50;1.00;;;;;;4995286;28;20485;-85
2023/08/28 06:24:16;;;;;;;2.47;2.10;;;33.30;1.00;;;;;;4978057;28;20215;-85
2023/08/28 06:26:42;;;;;;;3.60;2.43;;;34.50;1.00;;;;;;4997787;28;20194;-85
2023/08/28 06:29:08;;;;;;;4.20;2.33;;;36.90;1.00;;;;;;4990473;28;20215;-85
2023/08/28 06:31:34;;;;;;;2.50;2.30;;;38.50;1.00;;;;;;4991953;28;20210;-85
2023/08/28 06:33:59;;;;;;;2.80;2.43;;;39.00;1.00;;;;;;4991265;28;20206;-85
2023/08/28 06:36:25;;;;;;;6.53;1.93;;;39.00;1.00;;;;;;4989991;28;20195;-89
2023/08/28 06:38:52;;;;;;;2.57;2.30;;;38.60;1.00;;;;;;4973239;28;20184;-85
2023/08/28 06:41:20;;;;;;;4.20;2.67;;;39.20;1.00;;;;;;4989360;28;20247;-85
2023/08/28 06:43:49;;;;;;;2.37;2.17;;;39.40;1.00;;;;;;4972657;28;20430;-85
2023/08/28 06:46:15;;;;;;;2.87;2.10;;;39.40;1.00;;;;;;4973219;28;20952;-85
2023/08/28 06:48:43;;;;;;;4.67;3.13;;;39.90;1.00;;;;;;4990442;28;20471;-85
2023/08/28 06:51:12;;;;;;;5.83;2.87;;;38.00;1.00;;;;;;4989555;28;20441;-83
2023/08/28 06:53:38;;;;;;;3.43;2.73;;;34.80;99.90;;;;;;4989346;28;20825;-84
2023/08/28 06:56:04;;;;;;;4.43;2.80;;;32.30;99.90;;;;;;4974120;28;20446;-84
2023/08/28 06:58:30;;;;;;;3.87;3.17;;;30.20;99.90;;;;;;4991232;28;21097;-85
2023/08/28 07:00:57;;;;;;;5.23;3.17;;;28.60;99.90;;;;;;4990401;28;20498;-87
2023/08/28 07:03:22;;;;;;;5.57;3.40;;;28.00;99.90;;;;;;4974657;28;20180;-84
2023/08/28 07:05:48;;;;;;;3.97;3.33;;;29.40;99.90;;;;;;4974653;28;20438;-84
2023/08/28 07:08:14;;;;;;;4.63;3.07;;;31.20;1.00;;;;;;4994911;28;20226;-84
2023/08/28 07:10:39;;;;;;;6.23;3.57;;;34.20;1.00;;;;;;4994798;28;20191;-85
2023/08/28 07:13:05;;;;;;;4.17;2.50;;;37.30;1.00;;;;;;4990485;28;20211;-85
2023/08/28 07:15:31;;;;;;;5.70;3.13;;;39.60;1.00;;;;;;4993032;28;20242;-85
2023/08/28 07:17:56;;;;;;;5.87;2.90;;;41.00;1.00;;;;;;4992615;28;20932;-86
2023/08/28 07:20:23;;;;;;;5.10;2.57;;;41.90;1.00;;;;;;4979042;28;20190;-86
2023/08/28 07:22:49;;;;;;;3.60;2.40;;;42.60;1.00;;;;;;4971585;28;20195;-85
2023/08/28 07:25:23;;;;;;;6.10;3.30;;;43.10;1.00;;;;;;4993273;28;20510;-86
2023/08/28 07:27:51;;;;;;;4.00;2.50;;;43.80;99.90;;;;;;4989070;28;20434;-83
2023/08/28 07:30:17;;;;;;;3.70;2.80;;;44.30;99.90;;;;;;4985747;28;20474;-84
2023/08/28 07:32:43;;;;;;;8.90;2.97;;;44.10;99.90;;;;;;4981036;28;20562;-84
2023/08/28 07:35:09;;;;;;;5.10;2.63;;;44.40;99.90;;;;;;4985934;28;20462;-84
2023/08/28 07:37:37;;;;;;;4.77;2.97;;;43.60;99.90;;;;;;4975932;28;20180;-87
2023/08/28 07:40:05;;;;;;;5.67;2.80;;;42.90;99.90;;;;;;4992814;28;20191;-86
2023/08/28 07:42:31;;;;;;;5.70;3.23;;;41.80;99.90;;;;;;4979727;28;20532;-85
2023/08/28 07:44:57;;;;;;;5.80;3.10;;;40.30;99.90;;;;;;4999029;28;20438;-85
2023/08/28 07:47:22;;;;;;;4.13;3.20;;;39.40;99.90;;;;;;4980000;28;20430;-89
2023/08/28 07:49:48;;;;;;;6.13;3.50;;;38.60;99.90;;;;;;4984145;28;20188;-86
2023/08/28 07:52:14;;;;;;;5.90;3.90;;;37.90;99.90;;;;;;4982427;28;20207;-86
2023/08/28 07:54:39;;;;;;;5.33;3.23;;;38.30;99.90;;;;;;4981452;28;20556;-85
2023/08/28 07:57:05;;;;;;;4.93;3.90;;;38.10;99.90;;;;;;4998809;28;20614;-85
2023/08/28 07:59:30;;;;;;;4.30;3.90;;;38.40;99.90;;;;;;5000404;28;20614;-85
2023/08/28 08:01:57;;;;;;;3.50;2.70;;;38.70;99.90;;;;;;4996492;28;20223;-85
2023/08/28 08:04:25;;;;;;;6.93;3.60;;;39.30;99.90;;;;;;4998710;28;20188;-86
2023/08/28 08:06:50;;;;;;;4.70;4.10;;;38.80;99.90;;;;;;4976255;28;20515;-85
2023/08/28 08:09:16;;;;;;;7.17;3.67;;;39.20;99.90;;;;;;4997860;28;20478;-85
2023/08/28 08:11:42;;;;;;;7.10;4.50;;;39.70;99.90;;;;;;4998663;28;20236;-85
2023/08/28 08:14:07;;;;;;;10.30;4.80;;;40.30;99.90;;;;;;4998736;28;20946;-85
2023/08/28 08:16:33;;;;;;;4.80;4.30;;;40.90;99.90;;;;;;4999749;28;20183;-85
2023/08/28 08:18:59;;;;;;;5.93;3.93;;;40.90;99.90;;;;;;4979202;28;20183;-84
2023/08/28 08:21:24;;;;;;;5.90;4.27;;;41.30;99.90;;;;;;4996283;28;20241;-85
2023/08/28 08:23:50;;;;;;;4.97;4.00;;;41.50;99.90;;;;;;5000030;28;20274;-85
2023/08/28 08:26:15;;;;;;;5.90;3.70;;;41.30;99.90;;;;;;4982940;28;20195;-85
2023/08/28 08:28:41;;;;;;;5.30;4.13;;;40.90;99.90;;;;;;4974763;28;20199;-85
2023/08/28 08:31:07;;;;;;;5.23;3.90;;;40.20;99.90;;;;;;5001748;28;20222;-86
2023/08/28 08:33:33;;;;;;;6.30;3.50;;;40.30;99.90;;;;;;4978126;28;20242;-85
2023/08/28 08:35:58;;;;;;;9.20;4.43;;;39.70;99.90;;;;;;4990816;28;20188;-85
2023/08/28 08:38:24;;;;;;;6.00;3.87;;;39.00;99.90;;;;;;4992707;28;20187;-86
2023/08/28 08:40:54;;;;;;;6.47;4.80;;;38.50;99.90;;;;;;4972622;28;20195;-85
2023/08/28 08:43:20;;;;;;;7.30;4.97;;;37.80;99.90;;;;;;4992075;28;20187;-86
2023/08/28 08:45:48;;;;;;;7.70;4.60;;;36.90;99.90;;;;;;4992800;28;20451;-85
2023/08/28 08:48:17;;;;;;;6.33;5.00;;;36.20;99.90;;;;;;4988801;28;20458;-86
2023/08/28 08:51:03;;;;;;;6.40;5.67;;;36.10;99.90;;;;;;4986091;28;20835;-85
2023/08/28 08:53:44;;;;;;;6.07;4.87;;;35.70;99.90;;;;;;4987018;28;20944;-85
2023/08/28 08:56:18;;;;;;;8.00;6.37;;;35.60;99.90;;;;;;4978152;28;20454;-84
2023/08/28 08:58:45;;;;;;;6.50;5.10;;;35.60;99.90;;;;;;4974800;28;20450;-86
2023/08/28 09:01:23;;;;;;;6.47;5.17;;;35.70;99.90;;;;;;4987375;28;20450;-86
2023/08/28 09:03:54;;;;;;;8.10;5.50;;;35.20;99.90;;;;;;4971784;28;20533;-85
2023/08/28 09:06:20;;;;;;;7.20;4.87;;;34.60;99.90;;;;;;4970683;28;20442;-86
2023/08/28 09:08:54;;;;;;;8.20;5.00;;;34.40;99.90;;;;;;4987384;28;21006;-82
2023/08/28 09:11:24;;;;;;;11.40;6.10;;;33.90;99.90;;;;;;4979670;28;20318;-85
2023/08/28 09:13:53;;;;;;;6.30;5.67;;;33.60;99.90;;;;;;4994389;28;20905;-84
2023/08/28 09:16:19;;;;;;;8.33;5.07;;;33.10;99.90;;;;;;4997912;28;20436;-85
2023/08/28 09:18:51;;;;;;;6.90;4.63;;;33.40;99.90;;;;;;4978447;28;20442;-84
2023/08/28 09:21:22;;;;;;;9.00;5.07;;;34.20;99.90;;;;;;4979440;28;20472;-85
2023/08/28 09:23:52;;;;;;;7.20;5.63;;;34.70;99.90;;;;;;4970549;28;20446;-84
2023/08/28 09:26:20;;;;;;;8.27;5.00;;;34.70;99.90;;;;;;5001251;28;20435;-84
2023/08/28 09:29:02;;;;;;;5.97;4.40;;;34.30;99.90;;;;;;4998423;28;20446;-85
2023/08/28 09:31:32;;;;;;;6.53;4.87;;;33.80;99.90;;;;;;4993724;28;20475;-85
2023/08/28 09:33:58;;;;;;;7.40;4.90;;;32.80;99.90;;;;;;4974635;28;20500;-84
2023/08/28 09:36:25;;;;;;;6.53;4.40;;;31.90;99.90;;;;;;4968842;28;20435;-84
2023/08/28 09:39:19;;;;;;;10.00;6.37;;;31.10;99.90;;;;;;4984066;28;20449;-83
2023/08/28 09:41:50;;;;;;;5.00;4.50;;;31.30;99.90;;;;;;4969949;28;20458;-83
2023/08/28 09:44:19;;;;;;;7.23;5.30;;;31.50;99.90;;;;;;4975929;28;20443;-84
2023/08/28 09:46:50;;;;;;;8.60;5.40;;;31.20;99.90;;;;;;4972796;28;20442;-85
2023/08/28 09:49:16;;;;;;;11.23;6.00;;;31.10;99.90;;;;;;4969186;28;20451;-83
2023/08/28 09:51:45;;;;;;;8.80;6.63;;;30.50;99.90;;;;;;4984861;28;20969;-83
2023/08/28 09:54:15;;;;;;;8.37;5.77;;;30.00;99.90;;;;;;4967817;28;20190;-84
2023/08/28 09:56:42;;;;;;;8.80;6.00;;;30.20;99.90;;;;;;4998832;28;20545;-84
2023/08/28 09:59:13;;;;;;;6.70;5.93;;;31.50;99.90;;;;;;4991634;28;20436;-83
2023/08/28 10:01:46;;;;;;;11.20;6.93;;;33.10;99.90;;;;;;4991220;28;21010;-85
2023/08/28 10:04:34;;;;;;;6.20;5.47;;;33.20;99.90;;;;;;4981198;28;20469;-88
2023/08/28 10:07:04;;;;;;;9.40;5.90;;;33.40;99.90;;;;;;4988363;28;20450;-85
2023/08/28 10:09:32;;;;;;;5.90;5.07;;;32.90;99.90;;;;;;4989861;28;20926;-84
2023/08/28 10:12:00;;;;;;;8.57;6.00;;;31.70;99.90;;;;;;4977430;28;20482;-83
2023/08/28 10:14:29;;;;;;;8.33;5.50;;;31.80;99.90;;;;;;4995973;28;20437;-85
2023/08/28 10:17:04;;;;;;;5.40;4.60;;;32.60;99.90;;;;;;4995638;28;20442;-83
2023/08/28 10:19:50;;;;;;;9.37;5.20;;;31.90;99.90;;;;;;4997090;28;20465;-85
2023/08/28 10:22:16;;;;;;;7.03;5.67;;;31.20;99.90;;;;;;4980144;28;20466;-85
2023/08/28 10:24:45;;;;;;;7.83;5.70;;;30.40;99.90;;;;;;5001311;28;20477;-87
2023/08/28 10:27:12;;;;;;;7.17;5.07;;;29.70;99.90;;;;;;4986134;28;20180;-85
2023/08/28 10:29:39;;;;;;;5.50;3.47;;;28.90;99.90;;;;;;5004178;28;20430;-84
2023/08/28 10:32:13;;;;;;;5.57;4.87;;;28.50;99.90;;;;;;4987957;28;20471;-85
2023/08/28 10:34:40;;;;;;;8.13;5.17;;;28.10;99.90;;;;;;4981163;28;20520;-85
2023/08/28 10:37:17;;;;;;;9.13;4.70;;;28.10;99.90;;;;;;4985754;28;20438;-85
2023/08/28 10:39:43;;;;;;;5.93;5.20;;;27.80;99.90;;;;;;5003437;28;20477;-87
2023/08/28 10:42:10;;;;;;;8.50;4.20;;;27.50;99.90;;;;;;5003931;28;20494;-87
2023/08/28 10:44:37;;;;;;;5.47;4.17;;;27.50;99.90;;;;;;5003565;28;20450;-85
2023/08/28 10:47:20;;;;;;;7.07;4.40;;;27.70;99.90;;;;;;5003936;28;20446;-87
2023/08/28 10:49:46;;;;;;;7.87;5.37;;;28.30;99.90;;;;;;4998548;28;20506;-85
2023/08/28 10:52:12;;;;;;;6.53;4.93;;;29.00;99.90;;;;;;4983687;28;20988;-85
2023/08/28 10:54:45;;;;;;;7.03;4.70;;;29.50;99.90;;;;;;5000171;28;20508;-84
2023/08/28 10:57:39;;;;;;;5.73;4.10;;;29.90;99.90;;;;;;5003690;28;20199;-85
2023/08/28 11:04:23;;;;;;;4.30;2.30;;;30.40;99.90;;;;;;4913459;28;20477;-85
2023/08/28 11:06:55;;;;;;;4.00;3.60;;;30.50;99.90;;;;;;4977273;28;20443;-84
2023/08/28 11:12:21;;;;;;;5.40;3.80;;;31.20;99.90;;;;;;4980714;28;20515;-86
2023/08/28 11:14:54;;;;;;;4.73;4.13;;;31.10;99.90;;;;;;4991926;28;20457;-85
2023/08/28 11:17:38;;;;;;;3.87;3.57;;;30.60;99.90;;;;;;4988745;28;20462;-85
2023/08/28 11:20:05;;;;;;;5.87;3.40;;;30.80;99.90;;;;;;5005084;28;20442;-87
2023/08/28 11:22:34;;;;;;;4.77;3.13;;;30.60;99.90;;;;;;5007006;28;20496;-83
2023/08/28 11:25:33;;;;;;;3.70;2.80;;;30.50;99.90;;;;;;4980613;28;20435;-82
2023/08/28 11:28:22;;;;;;;4.77;3.20;;;30.30;99.90;;;;;;4974958;28;20435;-83
2023/08/28 11:30:48;;;;;;;4.50;2.97;;;30.00;99.90;;;;;;4969550;28;20485;-86
2023/08/28 11:33:35;;;;;;;7.13;3.43;;;29.60;99.90;;;;;;4997375;28;20450;-84
2023/08/28 11:36:24;;;;;;;5.90;3.60;;;29.60;99.90;;;;;;4980235;28;20506;-83
2023/08/28 11:39:10;;;;;;;3.40;2.40;;;29.20;99.90;;;;;;4978364;28;20820;-84
2023/08/28 11:42:07;;;;;;;4.13;3.07;;;29.10;99.90;;;;;;4997472;28;20464;-84
2023/08/28 11:48:14;;;;;;;5.93;3.30;;;28.60;99.90;;;;;;4951548;28;20479;-85
2023/08/28 11:54:10;;;;;;;3.67;2.93;;;29.00;99.90;;;;;;4982986;22;20491;-84
2023/08/28 12:03:57;;;;;;;;;;;;;;;;;;;;;
2023/08/28 12:07:41;;;;;;;3.03;2.10;;;31.00;99.90;;;;;;4899124;29;20531;-87
2023/08/28 12:14:54;;;;;;;2.50;1.80;;;30.90;99.90;;;;;;4888432;29;20491;-86
2023/08/28 12:17:21;;;;;;;5.60;2.13;;;31.20;99.90;;;;;;4954750;28;20575;-85
2023/08/28 12:19:51;;;;;;;5.30;2.27;;;31.90;99.90;;;;;;4965014;28;20435;-85
2023/08/28 12:22:20;;;;;;;6.60;1.70;;;32.00;99.90;;;;;;4983998;28;20530;-85
2023/08/28 12:24:49;;;;;;;4.00;2.17;;;32.40;99.90;;;;;;4961752;28;20499;-84
2023/08/28 12:27:17;;;;;;;2.83;2.43;;;32.80;99.90;;;;;;4981911;28;20443;-85
2023/08/28 12:29:43;;;;;;;2.40;1.73;;;33.10;99.90;;;;;;4980380;28;21036;-85
2023/08/28 12:32:16;;;;;;;2.03;1.50;;;33.40;99.90;;;;;;4975358;28;20992;-85
2023/08/28 12:34:43;;;;;;;5.37;1.60;;;33.80;99.90;;;;;;4979328;28;20436;-85
2023/08/28 12:37:11;;;;;;;3.80;2.17;;;33.00;99.90;;;;;;4981236;28;20536;-86
2023/08/28 12:39:50;;;;;;;3.00;1.60;;;32.60;99.90;;;;;;4981481;28;20446;-86
2023/08/28 12:42:21;;;;;;;2.37;1.70;;;32.30;99.90;;;;;;4973620;28;20466;-86
2023/08/28 12:44:47;;;;;;;3.80;2.07;;;31.60;99.90;;;;;;4964500;28;20432;-85
2023/08/28 12:47:24;;;;;;;3.53;1.37;;;31.30;99.90;;;;;;4958469;28;20468;-85
2023/08/28 12:49:56;;;;;;;3.27;1.70;;;31.30;99.90;;;;;;4961275;28;21067;-85
2023/08/28 12:52:21;;;;;;;2.63;1.87;;;31.30;99.90;;;;;;4982197;28;20463;-85
2023/08/28 12:54:49;;;;;;;2.90;2.10;;;31.50;99.90;;;;;;4981962;28;20453;-85
2023/08/28 12:57:15;;;;;;;2.70;1.60;;;32.50;99.90;;;;;;4982074;28;20639;-86
2023/08/28 12:59:43;;;;;;;5.13;2.33;;;33.00;99.90;;;;;;4959008;28;20443;-85
2023/08/28 13:02:09;;;;;;;3.80;2.03;;;32.80;99.90;;;;;;4980619;28;20714;-85
2023/08/28 13:04:35;;;;;;;2.73;2.00;;;32.80;99.90;;;;;;4963678;28;20439;-85
2023/08/28 13:07:00;;;;;;;2.67;2.00;;;32.90;99.90;;;;;;4956722;28;20271;-85
2023/08/28 13:09:26;;;;;;;3.77;1.93;;;32.90;99.90;;;;;;4956890;28;20443;-85
2023/08/28 13:11:52;;;;;;;2.10;1.60;;;32.80;99.90;;;;;;4955787;28;20220;-85
2023/08/28 13:14:17;;;;;;;3.20;1.63;;;32.40;99.90;;;;;;4976053;28;20728;-84
2023/08/28 13:16:43;;;;;;;4.63;1.87;;;31.80;99.90;;;;;;4976154;28;20310;-85
2023/08/28 13:19:15;;;;;;;2.63;1.60;;;31.30;99.90;;;;;;4970114;28;20184;-85
2023/08/28 13:21:43;;;;;;;2.73;1.60;;;30.80;99.90;;;;;;4958985;28;20259;-85
2023/08/28 13:24:09;;;;;;;2.90;1.40;;;30.40;99.90;;;;;;4958983;28;20486;-86